createdAt,value
2018-06-21T01:32:31.423Z,4.73
2018-06-21T01:34:59.683Z,5.07
2018-06-21T01:37:28.383Z,5.57
2018-06-21T01:39:56.909Z,5.63
2018-06-21T01:42:25.309Z,4.17
2018-06-21T01:44:53.882Z,4.97
2018-06-21T01:47:22.310Z,5.20
2018-06-21T01:49:50.735Z,4.97
2018-06-21T01:52:19.206Z,4.73
2018-06-21T01:54:47.685Z,4.33
2018-06-21T01:57:16.233Z,4.17
2018-06-21T01:59:44.976Z,4.13
2018-06-21T02:02:13.456Z,3.70
2018-06-21T02:04:42.005Z,4.57
2018-06-21T02:07:10.429Z,5.53
2018-06-21T02:09:38.800Z,5.03
2018-06-21T02:12:07.202Z,4.57
2018-06-21T02:14:35.600Z,5.00
2018-06-21T02:17:04.293Z,4.90
2018-06-21T02:19:33.066Z,4.30
2018-06-21T02:22:01.755Z,5.17
2018-06-21T02:24:30.578Z,4.03
2018-06-21T02:26:59.168Z,5.83
2018-06-21T02:29:27.764Z,5.70
2018-06-21T02:31:56.366Z,5.40
2018-06-21T02:34:25.035Z,5.70
2018-06-21T02:36:53.734Z,6.67
2018-06-21T02:39:22.360Z,5.03
2018-06-21T02:41:50.978Z,4.93
2018-06-21T02:44:19.580Z,5.70
2018-06-21T02:46:48.230Z,6.13
2018-06-21T02:49:16.807Z,5.90
2018-06-21T02:51:45.427Z,7.33
2018-06-21T02:54:14.101Z,6.60
2018-06-21T02:56:42.678Z,4.60
2018-06-21T02:59:11.298Z,4.73
2018-06-21T03:01:40.265Z,4.50
2018-06-21T03:04:09.209Z,5.43
2018-06-21T03:06:37.846Z,4.83
2018-06-21T03:09:08.006Z,4.50
2018-06-21T03:11:36.664Z,5.27
2018-06-21T03:14:05.576Z,4.17
2018-06-21T03:16:34.123Z,3.87
2018-06-21T03:19:02.826Z,4.60
2018-06-21T03:21:31.434Z,6.43
2018-06-21T03:24:00.279Z,6.27
2018-06-21T03:26:28.712Z,4.37
2018-06-21T03:28:59.138Z,6.50
2018-06-21T03:31:27.837Z,5.77
2018-06-21T03:33:56.469Z,4.60
2018-06-21T03:36:24.967Z,5.10
2018-06-21T03:38:53.462Z,4.67
2018-06-21T03:41:21.964Z,3.80
2018-06-21T03:43:50.381Z,4.40
2018-06-21T03:46:18.792Z,3.57
2018-06-21T03:48:47.311Z,3.20
2018-06-21T03:51:15.806Z,3.87
2018-06-21T03:53:44.382Z,3.20
2018-06-21T03:56:12.788Z,3.77
2018-06-21T03:58:41.297Z,4.27
2018-06-21T04:01:10.086Z,4.10
2018-06-21T04:03:38.587Z,2.40
2018-06-21T04:06:07.106Z,3.23
2018-06-21T04:08:35.521Z,2.80
2018-06-21T04:11:04.130Z,3.30
2018-06-21T04:13:32.700Z,4.07
2018-06-21T04:16:01.086Z,2.70
2018-06-21T04:18:36.037Z,3.63
2018-06-21T04:21:04.934Z,2.90
2018-06-21T04:23:35.195Z,2.90
2018-06-21T04:26:03.696Z,2.27
2018-06-21T04:28:33.153Z,3.17
2018-06-21T04:31:01.952Z,2.50
2018-06-21T04:33:30.684Z,2.77
2018-06-21T04:35:59.168Z,2.63
2018-06-21T04:38:30.169Z,2.40
2018-06-21T04:40:58.183Z,2.00
2018-06-21T04:43:26.536Z,2.20
2018-06-21T04:45:55.133Z,2.43
2018-06-21T04:48:23.616Z,1.67
2018-06-21T04:50:52.184Z,1.87
2018-06-21T04:53:20.685Z,1.23
2018-06-21T04:55:48.773Z,1.10
2018-06-21T04:58:17.108Z,1.13
2018-06-21T05:00:45.569Z,0.97
2018-06-21T05:03:14.136Z,1.43
2018-06-21T05:05:42.665Z,1.20
2018-06-21T05:08:11.240Z,1.10
2018-06-21T05:10:39.785Z,1.10
2018-06-21T05:13:08.413Z,1.27
2018-06-21T05:15:36.935Z,0.90
2018-06-21T05:18:05.632Z,1.27
2018-06-21T05:20:34.121Z,1.40
2018-06-21T05:23:02.693Z,1.13
2018-06-21T05:25:31.384Z,0.97
2018-06-21T05:27:59.874Z,0.97
2018-06-21T05:30:28.508Z,1.10
2018-06-21T05:32:56.572Z,0.90
2018-06-21T05:35:24.985Z,1.70
2018-06-21T05:37:53.556Z,1.37
2018-06-21T05:40:35.840Z,1.20
2018-06-21T05:43:04.769Z,1.47
2018-06-21T05:45:48.686Z,1.17
2018-06-21T05:48:17.264Z,1.40
2018-06-21T05:50:45.785Z,1.37
2018-06-21T05:53:14.253Z,0.93
2018-06-21T05:55:42.784Z,1.50
2018-06-21T05:58:11.355Z,1.07
2018-06-21T06:00:39.864Z,0.93
2018-06-21T06:03:08.419Z,1.60
2018-06-21T06:05:37.149Z,1.07
2018-06-21T06:08:05.654Z,1.20
2018-06-21T06:10:34.109Z,1.23
2018-06-21T06:13:02.614Z,1.30
2018-06-21T06:15:31.024Z,1.50
2018-06-21T06:17:59.571Z,1.30
2018-06-21T06:20:28.125Z,1.10
2018-06-21T06:22:56.697Z,1.20
2018-06-21T06:25:25.254Z,1.47
2018-06-21T06:27:53.693Z,1.10
2018-06-21T06:30:22.164Z,1.40
2018-06-21T06:32:50.632Z,1.20
2018-06-21T06:35:19.097Z,1.00
2018-06-21T06:37:47.630Z,1.40
2018-06-21T06:40:16.146Z,1.10
2018-06-21T06:42:44.649Z,1.53
2018-06-21T06:45:13.116Z,1.00
2018-06-21T06:47:41.264Z,1.23
2018-06-21T06:50:09.626Z,1.30
2018-06-21T06:52:38.136Z,1.10
2018-06-21T06:55:07.141Z,1.20
2018-06-21T06:57:35.692Z,1.50
2018-06-21T07:00:06.557Z,1.30
2018-06-21T07:02:35.069Z,1.73
2018-06-21T07:05:03.710Z,1.50
2018-06-21T07:07:32.617Z,1.07
2018-06-21T07:10:01.164Z,1.60
2018-06-21T07:12:29.717Z,1.43
2018-06-21T07:14:58.183Z,1.10
2018-06-21T07:17:26.677Z,1.07
2018-06-21T07:19:55.260Z,1.00
2018-06-21T07:22:23.700Z,1.53
2018-06-21T07:24:52.338Z,0.80
2018-06-21T07:27:20.884Z,0.83
2018-06-21T07:29:49.495Z,1.00
2018-06-21T07:32:17.989Z,0.90
2018-06-21T07:34:46.389Z,1.30
2018-06-21T07:37:15.292Z,1.10
2018-06-21T07:39:43.792Z,0.93
2018-06-21T07:42:12.229Z,1.20
2018-06-21T07:44:40.621Z,1.07
2018-06-21T07:47:09.268Z,0.90
2018-06-21T07:49:37.800Z,0.87
2018-06-21T07:52:06.249Z,1.20
2018-06-21T07:54:34.916Z,1.00
2018-06-21T07:57:03.404Z,1.10
2018-06-21T07:59:31.965Z,0.80
2018-06-21T08:02:00.472Z,0.90
2018-06-21T08:04:28.868Z,1.10
2018-06-21T08:06:57.385Z,0.70
2018-06-21T08:09:26.026Z,0.90
2018-06-21T08:11:54.496Z,1.10
2018-06-21T08:14:22.981Z,0.90
2018-06-21T08:16:51.597Z,0.90
2018-06-21T08:19:19.946Z,1.00
2018-06-21T08:21:48.415Z,1.10
2018-06-21T08:24:16.889Z,1.70
2018-06-21T08:26:45.566Z,1.47
2018-06-21T08:29:14.255Z,0.93
2018-06-21T08:31:43.238Z,1.43
2018-06-21T08:34:11.937Z,1.20
2018-06-21T08:36:40.403Z,1.30
2018-06-21T08:39:09.738Z,0.90
2018-06-21T08:41:38.180Z,1.20
2018-06-21T08:44:06.688Z,1.00
2018-06-21T08:46:35.131Z,1.20
2018-06-21T08:49:03.715Z,0.80
2018-06-21T08:51:32.023Z,0.93
2018-06-21T08:54:00.320Z,1.10
2018-06-21T08:56:28.592Z,1.20
2018-06-21T08:58:56.948Z,0.90
2018-06-21T09:01:25.425Z,0.73
2018-06-21T09:03:53.996Z,1.63
2018-06-21T09:06:22.413Z,0.97
2018-06-21T09:08:51.045Z,1.10
2018-06-21T09:11:19.558Z,1.00
2018-06-21T09:13:48.024Z,0.73
2018-06-21T09:16:16.485Z,0.80
2018-06-21T09:18:45.015Z,0.70
2018-06-21T09:21:13.503Z,0.77
2018-06-21T09:23:41.920Z,0.97
2018-06-21T09:26:12.461Z,0.83
2018-06-21T09:28:41.729Z,0.90
2018-06-21T09:31:10.337Z,1.10
2018-06-21T09:33:38.864Z,0.47
2018-06-21T09:36:07.397Z,0.70
2018-06-21T09:38:41.025Z,1.47
2018-06-21T09:41:14.710Z,0.60
2018-06-21T09:43:50.297Z,0.87
2018-06-21T09:46:33.869Z,1.40
2018-06-21T09:48:52.819Z,1.00
2018-06-21T09:51:21.607Z,1.30
2018-06-21T09:53:50.260Z,1.10
2018-06-21T09:56:19.148Z,1.07
2018-06-21T09:58:47.648Z,1.07
2018-06-21T10:01:16.273Z,1.60
2018-06-21T10:03:44.859Z,1.10
2018-06-21T10:06:13.285Z,1.50
2018-06-21T10:08:42.033Z,1.07
2018-06-21T10:11:10.521Z,1.23
2018-06-21T10:13:39.018Z,1.43
2018-06-21T10:16:07.645Z,1.03
2018-06-21T10:18:36.205Z,1.53
2018-06-21T10:21:04.708Z,1.60
2018-06-21T10:23:33.212Z,1.33
2018-06-21T10:26:01.694Z,1.47
2018-06-21T10:28:30.324Z,1.37
2018-06-21T10:30:58.844Z,1.40
2018-06-21T10:36:01.233Z,1.40
2018-06-21T10:38:29.849Z,1.00
2018-06-21T10:40:58.504Z,1.07
2018-06-21T10:43:27.168Z,0.83
2018-06-21T10:45:55.688Z,1.33
2018-06-21T10:48:24.120Z,1.00
2018-06-21T10:50:52.720Z,0.83
2018-06-21T10:53:21.197Z,0.90
2018-06-21T10:55:49.648Z,0.67
2018-06-21T10:58:18.131Z,0.80
2018-06-21T11:00:46.646Z,0.60
2018-06-21T11:03:15.110Z,1.00
2018-06-21T11:05:43.723Z,0.77
2018-06-21T11:08:12.168Z,0.57
2018-06-21T11:10:40.849Z,1.30
2018-06-21T11:13:09.368Z,0.80
2018-06-21T11:15:37.927Z,0.70
2018-06-21T11:18:06.736Z,0.60
2018-06-21T11:20:35.332Z,0.53
2018-06-21T11:23:03.825Z,0.60
2018-06-21T11:25:34.125Z,0.67
2018-06-21T11:28:02.771Z,0.90
2018-06-21T11:30:31.325Z,0.57
2018-06-21T11:32:59.774Z,0.80
2018-06-21T11:35:28.340Z,0.60
2018-06-21T11:37:56.814Z,0.67
2018-06-21T11:40:25.386Z,0.30
2018-06-21T11:42:53.925Z,0.53
2018-06-21T11:45:22.420Z,0.30
2018-06-21T11:47:50.916Z,0.40
2018-06-21T11:50:19.405Z,0.60
2018-06-21T11:52:47.791Z,0.90
2018-06-21T11:55:19.549Z,0.40
2018-06-21T11:57:48.135Z,0.63
2018-06-21T12:00:16.604Z,0.57
2018-06-21T12:02:45.167Z,0.67
2018-06-21T12:05:13.741Z,0.70
2018-06-21T12:07:42.195Z,0.20
2018-06-21T12:10:10.677Z,0.47
2018-06-21T12:12:39.222Z,0.70
2018-06-21T12:15:07.680Z,0.50
2018-06-21T12:17:36.232Z,0.50
2018-06-21T12:20:04.794Z,0.40
2018-06-21T12:22:34.455Z,0.60
2018-06-21T12:25:03.013Z,0.50
2018-06-21T12:27:31.413Z,0.60
2018-06-21T12:29:59.893Z,0.67
2018-06-21T12:32:28.342Z,0.57
2018-06-21T12:34:56.884Z,0.43
2018-06-21T12:37:25.489Z,0.70
2018-06-21T12:39:54.072Z,0.80
2018-06-21T12:42:22.549Z,0.87
2018-06-21T12:44:51.144Z,0.80
2018-06-21T12:47:19.636Z,0.73
2018-06-21T12:49:47.903Z,0.80
2018-06-21T12:52:16.360Z,0.63
2018-06-21T12:54:44.913Z,0.40
2018-06-21T12:57:13.513Z,0.70
2018-06-21T12:59:42.042Z,1.00
2018-06-21T13:02:10.680Z,0.97
2018-06-21T13:04:39.328Z,0.50
2018-06-21T13:07:09.591Z,1.23
2018-06-21T13:09:50.797Z,0.70
2018-06-21T13:12:31.670Z,0.80
2018-06-21T13:15:00.208Z,1.03
2018-06-21T13:17:29.795Z,0.83
2018-06-21T13:19:59.129Z,0.83
2018-06-21T13:22:27.974Z,1.07
2018-06-21T13:24:56.577Z,1.13
2018-06-21T13:27:25.012Z,0.60
2018-06-21T13:29:53.465Z,0.80
2018-06-21T13:32:21.997Z,0.47
2018-06-21T13:34:50.414Z,0.60
2018-06-21T13:37:18.862Z,0.80
2018-06-21T13:39:47.358Z,1.00
2018-06-21T13:42:15.834Z,0.50
2018-06-21T13:44:44.428Z,0.53
2018-06-21T13:47:13.013Z,0.60
2018-06-21T13:49:41.437Z,0.97
2018-06-21T13:52:10.011Z,0.37
2018-06-21T13:54:38.585Z,0.77
2018-06-21T13:57:07.084Z,0.70
2018-06-21T13:59:35.525Z,0.60
2018-06-21T14:02:04.125Z,0.50
2018-06-21T14:04:32.608Z,0.40
2018-06-21T14:07:01.085Z,0.60
2018-06-21T14:09:29.493Z,0.60
2018-06-21T14:11:58.097Z,0.80
2018-06-21T14:14:26.736Z,0.70
2018-06-21T14:16:55.405Z,0.60
2018-06-21T14:19:25.004Z,0.63
2018-06-21T14:21:53.536Z,0.93
2018-06-21T14:24:21.980Z,0.70
2018-06-21T14:26:50.536Z,0.70
2018-06-21T14:29:19.028Z,0.80
2018-06-21T14:31:47.469Z,0.53
2018-06-21T14:34:15.933Z,0.60
2018-06-21T14:36:46.151Z,0.83
2018-06-21T14:39:16.173Z,0.70
2018-06-21T14:41:44.592Z,0.63
2018-06-21T14:44:13.120Z,0.50
2018-06-21T14:46:41.643Z,0.57
2018-06-21T14:49:10.047Z,0.53
2018-06-21T14:51:38.479Z,0.80
2018-06-21T14:54:06.990Z,0.47
2018-06-21T14:56:35.509Z,0.70
2018-06-21T14:59:04.102Z,1.27
2018-06-21T15:01:32.528Z,0.80
2018-06-21T15:04:01.017Z,0.67
2018-06-21T15:06:29.524Z,0.20
2018-06-21T15:08:58.049Z,0.57
2018-06-21T15:11:26.526Z,0.70
2018-06-21T15:13:56.053Z,0.63
2018-06-21T15:16:24.767Z,0.50
2018-06-21T15:18:53.209Z,0.80
2018-06-21T15:21:21.777Z,0.90
2018-06-21T15:23:50.304Z,0.87
2018-06-21T15:26:18.820Z,0.53
2018-06-21T15:28:47.337Z,0.50
2018-06-21T15:31:15.886Z,0.90
2018-06-21T15:33:44.405Z,0.50
2018-06-21T15:36:12.875Z,0.67
2018-06-21T15:38:41.506Z,0.60
2018-06-21T15:41:10.023Z,0.80
2018-06-21T15:43:38.564Z,0.60
2018-06-21T15:46:07.060Z,0.43
2018-06-21T15:48:35.642Z,0.23
2018-06-21T15:51:04.085Z,0.77
2018-06-21T15:53:32.560Z,0.77
2018-06-21T15:56:01.106Z,1.00
2018-06-21T15:58:29.610Z,0.60
2018-06-21T16:00:58.079Z,0.70
2018-06-21T16:03:26.794Z,0.57
2018-06-21T16:05:55.279Z,0.60
2018-06-21T16:08:23.721Z,0.60
2018-06-21T16:10:52.144Z,0.90
2018-06-21T16:13:20.750Z,0.80
2018-06-21T16:15:49.401Z,0.97
2018-06-21T16:18:17.898Z,0.93
2018-06-21T16:20:46.621Z,0.73
2018-06-21T16:23:15.133Z,0.70
2018-06-21T16:25:43.581Z,1.00
2018-06-21T16:28:11.671Z,0.80
2018-06-21T16:30:40.048Z,1.20
2018-06-21T16:33:08.736Z,0.53
2018-06-21T16:35:36.780Z,0.90
2018-06-21T16:38:05.233Z,0.80
2018-06-21T16:40:36.970Z,1.43
2018-06-21T16:43:05.849Z,1.03
2018-06-21T16:45:34.460Z,0.70
2018-06-21T16:48:03.016Z,0.80
2018-06-21T16:50:31.493Z,0.80
2018-06-21T16:53:00.054Z,0.53
2018-06-21T16:55:28.511Z,0.70
2018-06-21T16:57:56.943Z,0.40
2018-06-21T17:00:25.336Z,0.70
2018-06-21T17:02:53.824Z,0.70
2018-06-21T17:05:22.274Z,0.60
2018-06-21T17:07:50.916Z,1.23
2018-06-21T17:10:19.402Z,0.90
2018-06-21T17:12:47.992Z,2.67
2018-06-21T17:15:16.564Z,1.00
2018-06-21T17:17:45.189Z,1.03
2018-06-21T17:20:13.738Z,0.73
2018-06-21T17:22:42.299Z,1.03
2018-06-21T17:25:10.857Z,1.03
2018-06-21T17:27:39.327Z,0.83
2018-06-21T17:30:07.930Z,0.70
2018-06-21T17:32:36.477Z,0.93
2018-06-21T17:35:05.122Z,0.87
2018-06-21T17:37:33.653Z,0.80
2018-06-21T17:40:02.149Z,1.03
2018-06-21T17:42:30.822Z,0.30
2018-06-21T17:44:59.298Z,0.80
2018-06-21T17:47:28.046Z,0.70
2018-06-21T17:49:56.680Z,0.50
2018-06-21T17:52:25.353Z,0.43
2018-06-21T17:54:53.895Z,0.50
2018-06-21T17:57:22.443Z,0.57
2018-06-21T17:59:51.025Z,0.77
2018-06-21T18:02:19.584Z,0.73
2018-06-21T18:04:48.203Z,1.40
2018-06-21T18:07:16.830Z,0.77
2018-06-21T18:09:45.348Z,0.50
2018-06-21T18:12:15.029Z,0.77
2018-06-21T18:14:43.605Z,1.13
2018-06-21T18:17:11.869Z,0.80
2018-06-21T18:19:40.240Z,1.03
2018-06-21T18:22:08.768Z,1.03
2018-06-21T18:24:37.292Z,0.90
2018-06-21T18:27:05.809Z,1.10
2018-06-21T18:29:35.840Z,0.80
2018-06-21T18:32:04.456Z,0.80
2018-06-21T18:34:33.220Z,0.40
2018-06-21T18:37:02.120Z,0.80
2018-06-21T18:39:30.539Z,1.40
2018-06-21T18:42:00.181Z,1.73
2018-06-21T18:44:28.673Z,1.40
2018-06-21T18:46:58.301Z,1.17
2018-06-21T18:49:34.889Z,1.00
2018-06-21T18:52:03.968Z,1.20
2018-06-21T18:54:32.587Z,1.10
2018-06-21T18:57:01.211Z,0.70
2018-06-21T18:59:30.833Z,1.20
2018-06-21T19:02:01.429Z,1.30
2018-06-21T19:04:30.010Z,1.10
2018-06-21T19:07:04.037Z,0.57
2018-06-21T19:09:37.841Z,1.57
2018-06-21T19:12:08.229Z,1.43
2018-06-21T19:14:37.707Z,1.53
2018-06-21T19:19:58.093Z,1.50
2018-06-21T19:22:26.713Z,1.23
2018-06-21T19:24:56.262Z,1.17
2018-06-21T19:30:16.623Z,1.40
2018-06-21T19:32:45.194Z,1.20
2018-06-21T19:35:13.718Z,0.93
2018-06-21T19:40:32.027Z,0.97
2018-06-21T19:43:00.697Z,1.30
2018-06-21T19:45:29.209Z,0.90
2018-06-21T19:47:57.777Z,0.77
2018-06-21T19:50:30.523Z,1.20
2018-06-21T19:52:59.045Z,1.10
2018-06-21T19:55:27.501Z,1.20
2018-06-21T19:57:57.165Z,1.10
2018-06-21T20:00:25.871Z,1.40
2018-06-21T20:03:09.386Z,1.40
2018-06-21T20:05:38.013Z,1.20
2018-06-21T20:08:06.605Z,1.30
2018-06-21T20:10:35.577Z,1.40
2018-06-21T20:13:04.404Z,1.40
2018-06-21T20:15:43.045Z,1.40
2018-06-21T20:18:11.772Z,1.37
2018-06-21T20:20:41.518Z,1.00
2018-06-21T20:23:10.029Z,2.10
2018-06-21T20:25:38.714Z,1.40
2018-06-21T20:28:07.531Z,1.50
2018-06-21T20:30:36.230Z,1.07
2018-06-21T20:33:04.837Z,1.13
2018-06-21T20:35:33.473Z,1.30
2018-06-21T20:38:02.090Z,0.90
2018-06-21T20:40:30.874Z,1.87
2018-06-21T20:42:59.537Z,1.47
2018-06-21T20:45:28.093Z,1.80
2018-06-21T20:47:56.821Z,1.83
2018-06-21T20:50:25.754Z,1.20
2018-06-21T20:52:54.358Z,1.10
2018-06-21T20:55:23.037Z,1.20
2018-06-21T20:57:51.644Z,0.80
2018-06-21T21:00:20.236Z,1.03
2018-06-21T21:02:48.939Z,1.43
2018-06-21T21:05:18.184Z,1.53
2018-06-21T21:07:48.526Z,0.87
2018-06-21T21:10:18.201Z,1.60
2018-06-21T21:12:46.834Z,2.03
2018-06-21T21:15:15.889Z,1.90
2018-06-21T21:17:44.614Z,1.63
2018-06-21T21:20:13.156Z,1.43
2018-06-21T21:22:42.184Z,1.80
2018-06-21T21:25:10.921Z,1.10
2018-06-21T21:27:39.617Z,1.20
2018-06-21T21:30:08.732Z,1.43
2018-06-21T21:32:37.333Z,1.47
2018-06-21T21:35:06.132Z,0.83
2018-06-21T21:37:34.740Z,1.00
2018-06-21T21:40:04.713Z,1.47
2018-06-21T21:42:34.599Z,1.00
2018-06-21T21:45:03.404Z,1.00
2018-06-21T21:47:32.125Z,0.83
2018-06-21T21:50:02.676Z,1.13
2018-06-21T21:52:31.472Z,0.83
2018-06-21T21:55:00.309Z,1.30
2018-06-21T21:57:31.083Z,0.93
2018-06-21T21:59:59.809Z,1.03
2018-06-21T22:02:28.658Z,0.70
2018-06-21T22:04:57.301Z,1.30
2018-06-21T22:07:25.945Z,0.80
2018-06-21T22:09:54.138Z,0.20
2018-06-21T22:12:22.665Z,0.50
2018-06-21T22:14:51.303Z,1.00
2018-06-21T22:17:19.960Z,0.43
2018-06-21T22:19:48.594Z,1.13
2018-06-21T22:22:17.341Z,0.70
2018-06-21T22:24:45.968Z,0.90
2018-06-21T22:27:14.625Z,0.53
2018-06-21T22:29:43.229Z,0.47
2018-06-21T22:32:14.256Z,0.80
2018-06-21T22:34:42.718Z,0.63
2018-06-21T22:37:10.848Z,0.57
2018-06-21T22:39:39.311Z,0.43
2018-06-21T22:42:08.058Z,0.80
2018-06-21T22:44:36.656Z,0.30
2018-06-21T22:47:05.216Z,0.63
2018-06-21T22:49:33.765Z,0.83
2018-06-21T22:52:02.459Z,1.00
2018-06-21T22:54:31.330Z,0.87
2018-06-21T22:57:00.062Z,0.77
2018-06-21T22:59:28.649Z,1.07
2018-06-21T23:01:57.260Z,0.70
2018-06-21T23:04:25.719Z,0.77
2018-06-21T23:06:54.309Z,1.40
2018-06-21T23:09:22.958Z,0.53
2018-06-21T23:11:51.477Z,1.10
2018-06-21T23:14:19.966Z,0.87
2018-06-21T23:16:48.489Z,0.27
2018-06-21T23:19:25.088Z,1.07
2018-06-21T23:21:53.858Z,0.97
2018-06-21T23:24:22.687Z,0.70
2018-06-21T23:26:51.527Z,1.23
2018-06-21T23:29:20.177Z,1.03
2018-06-21T23:31:48.841Z,0.73
2018-06-21T23:34:17.672Z,1.10
2018-06-21T23:36:46.152Z,1.10
2018-06-21T23:39:14.605Z,1.03
2018-06-21T23:41:43.681Z,0.47
2018-06-21T23:44:13.413Z,1.03
2018-06-21T23:46:42.405Z,0.90
2018-06-21T23:49:11.229Z,0.83
2018-06-21T23:51:40.237Z,1.50
2018-06-21T23:54:10.677Z,0.70
2018-06-21T23:56:39.513Z,1.00
2018-06-21T23:59:08.075Z,1.10
